AUL145 ULAA-ULLI
Flight info
| Callsign | AUL145 |
|---|---|
| Flight time | N/A |
| Altitude | 36000 |
| Route | MAKOG T821 ROGID M856 GIKUR T458 BEPOL |
| Aircraft | B738/M-SDE2E3FGHIRWXY/LB1 |
Departure
| Time | N/A |
|---|---|
| Airport | Talagi Airport (ULAA) |
Arrival
| Time | 2026-05-01 12:12 |
|---|---|
| Airport | Pulkovo Airport (ULLI) |
| Time | Latitude | Longitude | Altitude | Speed | Heading |
|---|---|---|---|---|---|
| 2026-05-01 11:40 | 61.62038 | 33.42354 | 36098 ft | 450 kts | 238° |
| 2026-05-01 11:41 | 61.60130 | 33.37165 | 36102 ft | 450 kts | 238° |
| 2026-05-01 11:41 | 61.56299 | 33.26781 | 36110 ft | 450 kts | 238° |
| 2026-05-01 11:42 | 61.52463 | 33.16426 | 35949 ft | 451 kts | 238° |
| 2026-05-01 11:42 | 61.50537 | 33.11246 | 35634 ft | 447 kts | 238° |
| 2026-05-01 11:42 | 61.48626 | 33.06126 | 35233 ft | 443 kts | 238° |
| 2026-05-01 11:42 | 61.46662 | 33.01172 | 34810 ft | 445 kts | 232° |
| 2026-05-01 11:43 | 61.44493 | 32.96625 | 34299 ft | 448 kts | 230° |
| 2026-05-01 11:43 | 61.42223 | 32.92166 | 33832 ft | 447 kts | 229° |
| 2026-05-01 11:43 | 61.39955 | 32.87762 | 33395 ft | 444 kts | 229° |
| 2026-05-01 11:44 | 61.35500 | 32.78972 | 32598 ft | 436 kts | 230° |
| 2026-05-01 11:44 | 61.33321 | 32.74612 | 32205 ft | 433 kts | 230° |
| 2026-05-01 11:44 | 61.31157 | 32.70286 | 31821 ft | 429 kts | 230° |
| 2026-05-01 11:44 | 61.28945 | 32.66118 | 31426 ft | 432 kts | 221° |
| 2026-05-01 11:45 | 61.26334 | 32.62987 | 31055 ft | 437 kts | 206° |
| 2026-05-01 11:45 | 61.23419 | 32.61165 | 30675 ft | 439 kts | 191° |
| 2026-05-01 11:45 | 61.20377 | 32.60590 | 30318 ft | 438 kts | 184° |
| 2026-05-01 11:45 | 61.17341 | 32.60263 | 29848 ft | 436 kts | 184° |
| 2026-05-01 11:46 | 61.14318 | 32.59958 | 29433 ft | 433 kts | 184° |
| 2026-05-01 11:46 | 61.11314 | 32.59619 | 29045 ft | 429 kts | 184° |
| 2026-05-01 11:46 | 61.08349 | 32.59243 | 28647 ft | 426 kts | 185° |
| 2026-05-01 11:46 | 61.05444 | 32.58849 | 28253 ft | 422 kts | 185° |
| 2026-05-01 11:47 | 61.02522 | 32.58442 | 27884 ft | 419 kts | 185° |
| 2026-05-01 11:47 | 60.99588 | 32.58035 | 27430 ft | 414 kts | 185° |
| 2026-05-01 11:47 | 60.96764 | 32.57643 | 27106 ft | 410 kts | 185° |
| 2026-05-01 11:47 | 60.93920 | 32.57237 | 26727 ft | 408 kts | 185° |
| 2026-05-01 11:48 | 60.91091 | 32.56827 | 26356 ft | 406 kts | 185° |
| 2026-05-01 11:48 | 60.88278 | 32.56419 | 25991 ft | 405 kts | 185° |
| 2026-05-01 11:48 | 60.85469 | 32.56013 | 25622 ft | 403 kts | 185° |
| 2026-05-01 11:48 | 60.82673 | 32.55611 | 25247 ft | 402 kts | 185° |
| 2026-05-01 11:49 | 60.79891 | 32.55212 | 24883 ft | 401 kts | 185° |
| 2026-05-01 11:49 | 60.77113 | 32.54815 | 24498 ft | 400 kts | 185° |
| 2026-05-01 11:49 | 60.74336 | 32.54419 | 24135 ft | 399 kts | 185° |
| 2026-05-01 11:49 | 60.71574 | 32.53958 | 23749 ft | 398 kts | 189° |
| 2026-05-01 11:50 | 60.68843 | 32.53068 | 23331 ft | 396 kts | 192° |
| 2026-05-01 11:50 | 60.66143 | 32.52024 | 22928 ft | 394 kts | 193° |
| 2026-05-01 11:50 | 60.63462 | 32.50943 | 22543 ft | 391 kts | 193° |
| 2026-05-01 11:50 | 60.60799 | 32.49871 | 22171 ft | 389 kts | 193° |
| 2026-05-01 11:51 | 60.58149 | 32.48821 | 21801 ft | 387 kts | 193° |
| 2026-05-01 11:51 | 60.55509 | 32.47794 | 21432 ft | 385 kts | 192° |
| 2026-05-01 11:51 | 60.52885 | 32.46786 | 21089 ft | 383 kts | 192° |
| 2026-05-01 11:51 | 60.50272 | 32.45791 | 20711 ft | 381 kts | 192° |
| 2026-05-01 11:52 | 60.47709 | 32.44820 | 20356 ft | 379 kts | 192° |
| 2026-05-01 11:52 | 60.45124 | 32.43844 | 19999 ft | 377 kts | 192° |
| 2026-05-01 11:52 | 60.43378 | 32.43186 | 19760 ft | 376 kts | 192° |
| 2026-05-01 11:52 | 60.39980 | 32.41908 | 19282 ft | 374 kts | 192° |
| 2026-05-01 11:53 | 60.37422 | 32.40947 | 18921 ft | 373 kts | 192° |
| 2026-05-01 11:53 | 60.35699 | 32.40300 | 18668 ft | 373 kts | 192° |
| 2026-05-01 11:53 | 60.33183 | 32.39358 | 18293 ft | 372 kts | 192° |
| 2026-05-01 11:53 | 60.30644 | 32.38408 | 17894 ft | 370 kts | 192° |
| 2026-05-01 11:54 | 60.28120 | 32.37465 | 17527 ft | 368 kts | 192° |
| 2026-05-01 11:54 | 60.25616 | 32.36532 | 17165 ft | 365 kts | 192° |
| 2026-05-01 11:54 | 60.23126 | 32.35605 | 16809 ft | 362 kts | 192° |
| 2026-05-01 11:54 | 60.20650 | 32.34684 | 16457 ft | 360 kts | 192° |
| 2026-05-01 11:55 | 60.18191 | 32.33770 | 16114 ft | 357 kts | 192° |
| 2026-05-01 11:55 | 60.15752 | 32.32866 | 15771 ft | 355 kts | 192° |
| 2026-05-01 11:55 | 60.13330 | 32.31969 | 15436 ft | 353 kts | 192° |
| 2026-05-01 11:55 | 60.10921 | 32.31079 | 15106 ft | 350 kts | 192° |
| 2026-05-01 11:56 | 60.08560 | 32.29965 | 14743 ft | 347 kts | 205° |
| 2026-05-01 11:56 | 60.06574 | 32.27402 | 14432 ft | 336 kts | 229° |
| 2026-05-01 11:56 | 60.05188 | 32.23779 | 14118 ft | 323 kts | 249° |
| 2026-05-01 11:56 | 60.04353 | 32.19671 | 13793 ft | 315 kts | 256° |
| 2026-05-01 11:57 | 60.03651 | 32.15530 | 13427 ft | 313 kts | 258° |
| 2026-05-01 11:57 | 60.02976 | 32.11407 | 13097 ft | 311 kts | 258° |
| 2026-05-01 11:57 | 60.02311 | 32.07373 | 12761 ft | 309 kts | 257° |
| 2026-05-01 11:57 | 60.01633 | 32.03317 | 12455 ft | 306 kts | 257° |
| 2026-05-01 11:58 | 60.00953 | 31.99296 | 12126 ft | 305 kts | 257° |
| 2026-05-01 11:58 | 60.00270 | 31.95298 | 11799 ft | 303 kts | 256° |
| 2026-05-01 11:58 | 59.98905 | 31.87385 | 11181 ft | 299 kts | 256° |
| 2026-05-01 11:59 | 59.98227 | 31.83470 | 10864 ft | 298 kts | 256° |
| 2026-05-01 11:59 | 59.97550 | 31.79569 | 10550 ft | 297 kts | 256° |
| 2026-05-01 11:59 | 59.96873 | 31.75678 | 10278 ft | 294 kts | 255° |
| 2026-05-01 12:00 | 59.95549 | 31.68120 | 9790 ft | 286 kts | 255° |
| 2026-05-01 12:00 | 59.94896 | 31.64399 | 9496 ft | 283 kts | 255° |
| 2026-05-01 12:00 | 59.93599 | 31.57029 | 8905 ft | 279 kts | 255° |
| 2026-05-01 12:01 | 59.92957 | 31.53386 | 8621 ft | 277 kts | 255° |
| 2026-05-01 12:01 | 59.92322 | 31.49772 | 8328 ft | 275 kts | 255° |
| 2026-05-01 12:01 | 59.91726 | 31.46171 | 8067 ft | 272 kts | 256° |
| 2026-05-01 12:01 | 59.91150 | 31.42607 | 7815 ft | 269 kts | 256° |
| 2026-05-01 12:02 | 59.90579 | 31.39070 | 7558 ft | 266 kts | 256° |
| 2026-05-01 12:02 | 59.90012 | 31.35568 | 7335 ft | 265 kts | 255° |
| 2026-05-01 12:02 | 59.89441 | 31.32064 | 7064 ft | 266 kts | 255° |
| 2026-05-01 12:02 | 59.88878 | 31.28618 | 6829 ft | 264 kts | 255° |
| 2026-05-01 12:03 | 59.88307 | 31.25149 | 6587 ft | 263 kts | 255° |
| 2026-05-01 12:03 | 59.87740 | 31.21694 | 6328 ft | 262 kts | 255° |
| 2026-05-01 12:03 | 59.87175 | 31.18251 | 6075 ft | 261 kts | 254° |
| 2026-05-01 12:03 | 59.86611 | 31.14830 | 5803 ft | 260 kts | 254° |
| 2026-05-01 12:04 | 59.86048 | 31.11419 | 5546 ft | 258 kts | 254° |
| 2026-05-01 12:04 | 59.85488 | 31.08035 | 5286 ft | 257 kts | 254° |
| 2026-05-01 12:04 | 59.84930 | 31.04674 | 5035 ft | 255 kts | 253° |
| 2026-05-01 12:04 | 59.84374 | 31.01333 | 4775 ft | 254 kts | 253° |
| 2026-05-01 12:05 | 59.83820 | 30.98007 | 4523 ft | 253 kts | 253° |
| 2026-05-01 12:05 | 59.82715 | 30.91394 | 3985 ft | 250 kts | 253° |
| 2026-05-01 12:05 | 59.82169 | 30.88133 | 3729 ft | 248 kts | 253° |
| 2026-05-01 12:06 | 59.81627 | 30.84895 | 3478 ft | 246 kts | 252° |
| 2026-05-01 12:06 | 59.81088 | 30.81688 | 3228 ft | 245 kts | 253° |
| 2026-05-01 12:06 | 59.80547 | 30.78488 | 2945 ft | 243 kts | 252° |
| 2026-05-01 12:06 | 59.79976 | 30.75337 | 2694 ft | 242 kts | 247° |
| 2026-05-01 12:07 | 59.79251 | 30.72354 | 2546 ft | 236 kts | 244° |
| 2026-05-01 12:07 | 59.78526 | 30.69507 | 2511 ft | 227 kts | 244° |
| 2026-05-01 12:07 | 59.77843 | 30.66800 | 2492 ft | 217 kts | 244° |
| 2026-05-01 12:07 | 59.77191 | 30.64193 | 2513 ft | 204 kts | 245° |
| 2026-05-01 12:08 | 59.76587 | 30.61760 | 2491 ft | 188 kts | 245° |
| 2026-05-01 12:08 | 59.76047 | 30.59498 | 2485 ft | 174 kts | 253° |
| 2026-05-01 12:08 | 59.76090 | 30.57247 | 2423 ft | 162 kts | 287° |
| 2026-05-01 12:08 | 59.76435 | 30.55064 | 2303 ft | 168 kts | 288° |
| 2026-05-01 12:09 | 59.76788 | 30.52861 | 2194 ft | 168 kts | 287° |
| 2026-05-01 12:09 | 59.77128 | 30.50680 | 2041 ft | 162 kts | 287° |
| 2026-05-01 12:09 | 59.77436 | 30.48517 | 1997 ft | 164 kts | 286° |
| 2026-05-01 12:09 | 59.77747 | 30.46374 | 1768 ft | 156 kts | 286° |
| 2026-05-01 12:10 | 59.78040 | 30.44388 | 1566 ft | 144 kts | 285° |
| 2026-05-01 12:10 | 59.78578 | 30.40729 | 1175 ft | 136 kts | 286° |
| 2026-05-01 12:10 | 59.78837 | 30.38953 | 991 ft | 135 kts | 285° |
| 2026-05-01 12:11 | 59.79368 | 30.35367 | 631 ft | 137 kts | 284° |
| 2026-05-01 12:11 | 59.79634 | 30.33566 | 434 ft | 135 kts | 285° |
| 2026-05-01 12:11 | 59.79896 | 30.31785 | 261 ft | 134 kts | 285° |
| 2026-05-01 12:12 | 59.80163 | 30.29994 | 92 ft | 136 kts | 285° |
| 2026-05-01 12:12 | 59.80392 | 30.28431 | 70 ft | 89 kts | 287° |
| 2026-05-01 12:12 | 59.80508 | 30.27659 | 70 ft | 32 kts | 287° |
| 2026-05-01 12:12 | 59.80570 | 30.27250 | 80 ft | 30 kts | 287° |
| 2026-05-01 12:13 | 59.80618 | 30.26925 | 77 ft | 17 kts | 286° |
| 2026-05-01 12:13 | 59.80643 | 30.26737 | 77 ft | 10 kts | 270° |
| 2026-05-01 12:13 | 59.80598 | 30.26643 | 79 ft | 10 kts | 202° |
| 2026-05-01 12:13 | 59.80565 | 30.26622 | 81 ft | 0 kts | 197° |
| 2026-05-01 12:15 | 59.80558 | 30.26618 | 80 ft | 2 kts | 197° |
| 2026-05-01 12:15 | 59.80536 | 30.26604 | 80 ft | 5 kts | 197° |
| 2026-05-01 12:15 | 59.80493 | 30.26578 | 81 ft | 8 kts | 197° |
| 2026-05-01 12:15 | 59.80446 | 30.26587 | 79 ft | 8 kts | 140° |
| 2026-05-01 12:16 | 59.80421 | 30.26695 | 79 ft | 9 kts | 107° |
| 2026-05-01 12:16 | 59.80404 | 30.26800 | 79 ft | 8 kts | 107° |
| 2026-05-01 12:16 | 59.80364 | 30.26858 | 80 ft | 8 kts | 188° |
| 2026-05-01 12:16 | 59.80303 | 30.26825 | 79 ft | 10 kts | 196° |
| 2026-05-01 12:17 | 59.80236 | 30.26785 | 80 ft | 9 kts | 197° |
| 2026-05-01 12:17 | 59.80169 | 30.26746 | 81 ft | 9 kts | 197° |
| 2026-05-01 12:17 | 59.80102 | 30.26706 | 81 ft | 10 kts | 197° |
| 2026-05-01 12:17 | 59.80054 | 30.26686 | 83 ft | 6 kts | 168° |
| 2026-05-01 12:18 | 59.80042 | 30.26747 | 84 ft | 6 kts | 97° |
| 2026-05-01 12:18 | 59.80033 | 30.26815 | 81 ft | 3 kts | 106° |
| 2026-05-01 12:18 | 59.80030 | 30.26835 | 80 ft | 0 kts | 106° |